Blackhawk, Colorado
Current Conditions -  °F | °C
As of 2:55 PM on Thursday 27 Nov 2014 (Local Time) from KBDU Reporting Station
Clear Clear  
Wind Chill: 63°   Ceiling: Unl
Heat Index: 63°   Visibility: 10mi
Dew Point: 19°   Wind: 3mph
Humidity: 19%   Direction: 230°SW
Pressure: 30.11"   Gusts: 28mph
Location:  39.8142°N, 105.541°W
Report Text: KBDU 272155Z AUTO 23003G24KT 10SM CLR 17/M07 A3011 RMK AO2
Loading
Personal Weather Stations






























Interactive Weather Map New forecast layout! Learn more

10-Day Weather Forecast

Advertisements
Track Severe Weather on mobile